createdAt,value
2023-04-28T00:00:13.940Z,9.00
2023-04-28T00:01:13.935Z,9.30
2023-04-28T00:02:13.933Z,9.80
2023-04-28T00:03:14.010Z,10.00
2023-04-28T00:04:14.202Z,9.80
2023-04-28T00:05:13.939Z,9.80
2023-04-28T00:06:13.891Z,12.20
2023-04-28T00:07:13.876Z,7.60
2023-04-28T00:08:13.828Z,12.40
2023-04-28T00:09:13.855Z,10.40
2023-04-28T00:10:13.843Z,10.00
2023-04-28T00:11:13.827Z,9.90
2023-04-28T00:12:13.803Z,10.40
2023-04-28T00:13:13.819Z,9.80
2023-04-28T00:14:13.850Z,8.80
2023-04-28T00:15:13.789Z,11.60
2023-04-28T00:16:13.823Z,11.10
2023-04-28T00:17:13.876Z,11.40
2023-04-28T00:18:13.756Z,9.60
2023-04-28T00:19:13.739Z,9.30
2023-04-28T00:20:13.700Z,12.20
2023-04-28T00:21:13.726Z,12.80
2023-04-28T00:22:13.729Z,12.40
2023-04-28T00:23:13.717Z,13.50
2023-04-28T00:24:13.788Z,14.30
2023-04-28T00:25:13.700Z,12.10
2023-04-28T00:26:13.660Z,10.10
2023-04-28T00:27:13.686Z,10.20
2023-04-28T00:28:18.382Z,12.70
2023-04-28T00:29:13.670Z,11.30
2023-04-28T00:30:13.622Z,12.40
2023-04-28T00:31:13.661Z,12.50
2023-04-28T00:32:13.655Z,12.10
2023-04-28T00:33:13.609Z,9.60
2023-04-28T00:34:13.753Z,10.30
2023-04-28T00:35:13.592Z,9.10
2023-04-28T00:36:13.542Z,9.00
2023-04-28T00:37:13.548Z,10.40
2023-04-28T00:38:13.558Z,10.20
2023-04-28T00:39:13.539Z,9.40
2023-04-28T00:40:13.538Z,8.40
2023-04-28T00:41:13.507Z,10.30
2023-04-28T00:42:13.499Z,9.50
2023-04-28T00:43:13.478Z,11.20
2023-04-28T00:44:13.558Z,9.80
2023-04-28T00:45:13.507Z,10.80
2023-04-28T00:46:13.633Z,10.50
2023-04-28T00:47:13.445Z,10.60
2023-04-28T00:48:13.403Z,11.10
2023-04-28T00:49:13.490Z,10.60
2023-04-28T00:50:13.408Z,12.30
2023-04-28T00:51:13.398Z,13.60
2023-04-28T00:52:13.387Z,10.10
2023-04-28T00:53:13.383Z,10.10
2023-04-28T00:54:13.441Z,12.40
2023-04-28T00:55:13.383Z,13.90
2023-04-28T00:56:13.325Z,10.50
2023-04-28T00:57:13.345Z,9.80
2023-04-28T00:58:13.338Z,11.00
2023-04-28T00:59:13.310Z,13.80
2023-04-28T01:00:13.317Z,11.60
2023-04-28T01:01:13.358Z,10.50
2023-04-28T01:02:13.350Z,9.70
2023-04-28T01:03:13.380Z,14.40
2023-04-28T01:04:13.496Z,10.40
2023-04-28T01:05:13.250Z,11.70
2023-04-28T01:06:13.254Z,11.60
2023-04-28T01:07:13.228Z,10.40
2023-04-28T01:08:13.194Z,10.30
2023-04-28T01:09:13.209Z,10.20
2023-04-28T01:10:13.244Z,8.70
2023-04-28T01:11:13.196Z,10.20
2023-04-28T01:12:13.163Z,11.50
2023-04-28T01:13:13.156Z,10.60
2023-04-28T01:14:13.196Z,11.70
2023-04-28T01:15:13.141Z,12.40
2023-04-28T01:16:13.162Z,13.50
2023-04-28T01:17:13.113Z,11.70
2023-04-28T01:18:13.118Z,10.00
2023-04-28T01:19:13.100Z,11.30
2023-04-28T01:20:13.110Z,9.80
2023-04-28T01:21:13.106Z,11.10
2023-04-28T01:22:13.068Z,8.90
2023-04-28T01:23:13.128Z,8.90
2023-04-28T01:24:13.027Z,9.90
2023-04-28T01:25:13.039Z,11.00
2023-04-28T01:26:12.994Z,11.50
2023-04-28T01:27:13.033Z,10.60
2023-04-28T01:28:13.023Z,9.30
2023-04-28T01:29:13.004Z,11.20
2023-04-28T01:30:12.989Z,10.40
2023-04-28T01:31:13.056Z,11.20
2023-04-28T01:32:12.924Z,10.80
2023-04-28T01:33:12.934Z,10.30
2023-04-28T01:34:13.001Z,11.90
2023-04-28T01:35:12.914Z,12.30
2023-04-28T01:36:12.881Z,10.80
2023-04-28T01:37:12.909Z,11.80
2023-04-28T01:38:12.879Z,9.80
2023-04-28T01:39:12.900Z,9.40
2023-04-28T01:40:12.873Z,9.40
2023-04-28T01:41:12.863Z,11.60
2023-04-28T01:42:12.857Z,10.30
2023-04-28T01:43:12.834Z,9.40
2023-04-28T01:44:12.801Z,10.40
2023-04-28T01:45:12.836Z,10.30
2023-04-28T01:46:12.833Z,10.40
2023-04-28T01:47:12.779Z,9.90
2023-04-28T01:48:12.795Z,12.20
2023-04-28T01:49:12.788Z,10.60
2023-04-28T01:50:12.750Z,9.70
2023-04-28T01:51:12.746Z,8.90
2023-04-28T01:52:12.766Z,10.30
2023-04-28T01:53:12.729Z,9.80
2023-04-28T01:54:12.704Z,9.40
2023-04-28T01:55:12.745Z,11.30
2023-04-28T01:56:12.678Z,9.60
2023-04-28T01:57:12.704Z,11.40
2023-04-28T01:58:12.675Z,9.20
2023-04-28T01:59:12.680Z,10.00
2023-04-28T02:00:12.735Z,9.70
2023-04-28T02:01:12.733Z,10.40
2023-04-28T02:02:12.641Z,8.50
2023-04-28T02:03:12.790Z,8.80
2023-04-28T02:04:12.710Z,7.80
2023-04-28T02:05:12.621Z,8.30
2023-04-28T02:06:12.592Z,8.70
2023-04-28T02:07:12.658Z,8.70
2023-04-28T02:08:12.561Z,8.30
2023-04-28T02:09:12.606Z,8.30
2023-04-28T02:10:12.641Z,10.10
2023-04-28T02:11:12.595Z,10.00
2023-04-28T02:12:12.681Z,9.70
2023-04-28T02:13:12.604Z,9.20
2023-04-28T02:14:12.496Z,10.00
2023-04-28T02:15:12.495Z,11.10
2023-04-28T02:16:12.518Z,9.20
2023-04-28T02:17:12.470Z,8.30
2023-04-28T02:18:12.477Z,9.60
2023-04-28T02:19:12.481Z,8.40
2023-04-28T02:20:12.435Z,10.00
2023-04-28T02:21:12.443Z,8.10
2023-04-28T02:22:12.469Z,9.60
2023-04-28T02:23:12.422Z,9.00
2023-04-28T02:24:12.407Z,8.50
2023-04-28T02:25:12.438Z,8.10
2023-04-28T02:26:12.364Z,7.20
2023-04-28T02:27:12.440Z,8.10
2023-04-28T02:28:12.417Z,10.30
2023-04-28T02:29:12.416Z,7.80
2023-04-28T02:30:12.376Z,7.00
2023-04-28T02:31:12.381Z,7.50
2023-04-28T02:32:12.375Z,9.40
2023-04-28T02:33:12.324Z,6.00
2023-04-28T02:34:12.308Z,7.60
2023-04-28T02:35:12.292Z,7.30
2023-04-28T02:36:12.268Z,6.50
2023-04-28T02:37:12.274Z,6.60
2023-04-28T02:38:12.219Z,8.40
2023-04-28T02:39:12.227Z,9.70
2023-04-28T02:40:12.245Z,8.50
2023-04-28T02:41:12.219Z,7.40
2023-04-28T02:42:12.315Z,9.10
2023-04-28T02:43:12.205Z,7.30
2023-04-28T02:44:12.156Z,6.90
2023-04-28T02:45:12.166Z,8.00
2023-04-28T02:46:12.167Z,6.30
2023-04-28T02:47:12.149Z,9.00
2023-04-28T02:48:12.196Z,6.50
2023-04-28T02:49:12.129Z,7.80
2023-04-28T02:50:12.079Z,8.20
2023-04-28T02:51:12.105Z,10.40
2023-04-28T02:52:12.086Z,7.70
2023-04-28T02:53:12.103Z,7.50
2023-04-28T02:54:12.088Z,7.80
2023-04-28T02:55:12.094Z,8.40
2023-04-28T02:56:12.019Z,5.20
2023-04-28T02:57:12.052Z,7.60
2023-04-28T02:58:12.018Z,6.80
2023-04-28T02:59:12.048Z,7.80
2023-04-28T03:00:11.999Z,7.60
2023-04-28T03:01:12.013Z,7.40
2023-04-28T03:02:11.955Z,9.40
2023-04-28T03:03:12.222Z,8.10
2023-04-28T03:04:12.137Z,7.70
2023-04-28T03:05:12.057Z,5.70
2023-04-28T03:06:11.984Z,5.70
2023-04-28T03:07:11.965Z,6.10
2023-04-28T03:08:11.917Z,7.60
2023-04-28T03:09:11.899Z,7.30
2023-04-28T03:10:11.903Z,7.90
2023-04-28T03:11:11.889Z,5.90
2023-04-28T03:12:11.843Z,7.60
2023-04-28T03:13:11.959Z,7.80
2023-04-28T03:14:11.873Z,7.80
2023-04-28T03:15:13.880Z,7.00
2023-04-28T03:16:11.878Z,7.80
2023-04-28T03:17:11.828Z,6.50
2023-04-28T03:18:11.790Z,6.10
2023-04-28T03:19:11.811Z,7.60
2023-04-28T03:20:11.783Z,6.10
2023-04-28T03:21:11.770Z,5.60
2023-04-28T03:22:11.768Z,5.70
2023-04-28T03:23:11.896Z,7.50
2023-04-28T03:24:11.739Z,5.80
2023-04-28T03:25:11.744Z,7.40
2023-04-28T03:26:11.694Z,5.60
2023-04-28T03:27:11.707Z,7.20
2023-04-28T03:28:11.723Z,4.80
2023-04-28T03:29:11.708Z,5.30
2023-04-28T03:30:11.665Z,6.00
2023-04-28T03:31:11.684Z,6.80
2023-04-28T03:32:11.800Z,5.10
2023-04-28T03:33:11.729Z,5.60
2023-04-28T03:34:11.636Z,6.00
2023-04-28T03:35:11.633Z,7.30
2023-04-28T03:36:11.605Z,8.00
2023-04-28T03:37:11.607Z,4.10
2023-04-28T03:38:11.565Z,6.80
2023-04-28T03:39:11.612Z,4.40
2023-04-28T03:40:18.563Z,4.70
2023-04-28T03:41:11.560Z,6.70
2023-04-28T03:42:11.522Z,5.20
2023-04-28T03:43:11.574Z,7.30
2023-04-28T03:44:11.509Z,5.60
2023-04-28T03:45:11.546Z,5.50
2023-04-28T03:46:11.502Z,7.70
2023-04-28T03:47:11.495Z,5.90
2023-04-28T03:48:11.534Z,5.40
2023-04-28T03:49:11.474Z,5.80
2023-04-28T03:50:11.484Z,8.00
2023-04-28T03:51:11.433Z,7.20
2023-04-28T03:52:11.457Z,5.90
2023-04-28T03:53:11.428Z,6.50
2023-04-28T03:54:11.531Z,7.40
2023-04-28T03:55:11.371Z,5.90
2023-04-28T03:56:11.448Z,6.10
2023-04-28T03:57:11.385Z,8.20
2023-04-28T03:58:11.370Z,6.50
2023-04-28T03:59:11.334Z,4.30
2023-04-28T04:00:11.384Z,5.70
2023-04-28T04:01:11.350Z,6.00
2023-04-28T04:02:11.400Z,6.50
2023-04-28T04:03:11.549Z,5.10
2023-04-28T04:04:11.532Z,5.10
2023-04-28T04:05:11.418Z,5.00
2023-04-28T04:06:11.302Z,8.50
2023-04-28T04:07:11.267Z,8.20
2023-04-28T04:08:11.262Z,4.80
2023-04-28T04:09:11.252Z,7.00
2023-04-28T04:10:11.270Z,7.40
2023-04-28T04:11:11.217Z,5.60
2023-04-28T04:12:11.249Z,6.20
2023-04-28T04:13:11.201Z,4.80
2023-04-28T04:14:11.198Z,5.40
2023-04-28T04:15:11.171Z,5.60
2023-04-28T04:16:11.204Z,7.00
2023-04-28T04:17:11.141Z,5.70
2023-04-28T04:18:11.281Z,7.30
2023-04-28T04:19:11.140Z,5.80
2023-04-28T04:20:11.140Z,6.50
2023-04-28T04:21:11.107Z,6.20
2023-04-28T04:22:11.143Z,7.50
2023-04-28T04:23:11.113Z,5.60
2023-04-28T04:24:11.091Z,5.10
2023-04-28T04:25:11.055Z,5.50
2023-04-28T04:26:11.096Z,8.20
2023-04-28T04:27:11.032Z,13.40
2023-04-28T04:28:11.048Z,6.80
2023-04-28T04:29:11.037Z,7.70
2023-04-28T04:30:11.057Z,6.80
2023-04-28T04:31:11.199Z,6.30
2023-04-28T04:32:11.020Z,7.10
2023-04-28T04:33:10.989Z,5.80
2023-04-28T04:34:11.000Z,5.40
2023-04-28T04:35:10.973Z,4.20
2023-04-28T04:36:11.028Z,4.80
2023-04-28T04:37:10.952Z,5.90
2023-04-28T04:38:11.074Z,3.70
2023-04-28T04:39:10.970Z,4.60
2023-04-28T04:40:11.112Z,3.50
2023-04-28T04:41:11.146Z,4.50
2023-04-28T04:42:23.986Z,4.90
2023-04-28T04:43:10.876Z,3.40
2023-04-28T04:44:12.099Z,5.00
2023-04-28T04:45:10.864Z,3.00
2023-04-28T04:46:10.854Z,3.30
2023-04-28T04:47:10.877Z,5.20
2023-04-28T04:48:10.869Z,2.30
2023-04-28T04:49:10.900Z,3.20
2023-04-28T04:50:10.943Z,1.80
2023-04-28T04:51:10.843Z,2.20
2023-04-28T04:52:10.970Z,2.10
2023-04-28T04:53:13.981Z,2.30
2023-04-28T04:54:10.770Z,1.10
2023-04-28T04:55:10.736Z,1.50
2023-04-28T04:56:10.754Z,1.50
2023-04-28T04:57:10.715Z,2.20
2023-04-28T04:58:10.725Z,0.90
2023-04-28T04:59:10.751Z,1.20
2023-04-28T05:00:10.715Z,2.00
2023-04-28T05:01:10.693Z,0.50
2023-04-28T05:02:10.918Z,1.80
2023-04-28T05:03:10.841Z,1.70
2023-04-28T05:04:10.855Z,1.50
2023-04-28T05:05:20.403Z,0.00
2023-04-28T05:06:10.687Z,0.50
2023-04-28T05:07:10.622Z,0.10
2023-04-28T05:08:10.650Z,0.20
2023-04-28T05:09:10.587Z,0.00
2023-04-28T05:10:10.613Z,0.00
2023-04-28T05:11:10.612Z,0.20
2023-04-28T05:12:10.602Z,0.80
2023-04-28T05:13:10.574Z,0.20
2023-04-28T05:14:10.575Z,0.60
2023-04-28T05:15:10.534Z,0.00
2023-04-28T05:16:10.700Z,0.20
2023-04-28T05:17:10.533Z,0.20
2023-04-28T05:18:10.619Z,0.10
2023-04-28T05:19:10.512Z,0.10
2023-04-28T05:20:12.665Z,0.20
2023-04-28T05:21:10.489Z,1.40
2023-04-28T05:22:10.505Z,0.30
2023-04-28T05:23:10.496Z,0.00
2023-04-28T05:24:10.468Z,1.20
2023-04-28T05:25:10.424Z,0.20
2023-04-28T05:26:10.446Z,0.10
2023-04-28T05:27:10.416Z,0.00
2023-04-28T05:28:10.448Z,0.40
2023-04-28T05:29:10.371Z,0.10
2023-04-28T05:30:10.646Z,0.20
2023-04-28T05:31:10.347Z,0.10
2023-04-28T05:32:10.440Z,0.00
2023-04-28T05:33:10.382Z,0.30
2023-04-28T05:34:10.353Z,1.70
2023-04-28T05:35:10.357Z,0.20
2023-04-28T05:36:10.335Z,2.50
2023-04-28T05:37:10.274Z,0.30
2023-04-28T05:38:10.301Z,0.20
2023-04-28T05:39:10.290Z,0.30
2023-04-28T05:40:10.256Z,0.30
2023-04-28T05:41:10.267Z,0.70
2023-04-28T05:42:10.273Z,0.00
2023-04-28T05:43:10.220Z,0.10
2023-04-28T05:44:10.249Z,0.10
2023-04-28T05:45:10.246Z,0.30
2023-04-28T05:46:28.328Z,0.40
2023-04-28T05:47:10.158Z,0.10
2023-04-28T05:48:10.296Z,0.30
2023-04-28T05:49:10.187Z,0.00
2023-04-28T05:50:10.199Z,0.40
2023-04-28T05:51:10.143Z,2.20
2023-04-28T05:52:10.170Z,0.10
2023-04-28T05:53:10.197Z,0.10
2023-04-28T05:54:10.134Z,0.20
2023-04-28T05:55:10.088Z,0.70
2023-04-28T05:56:10.129Z,0.20
2023-04-28T05:57:10.066Z,0.10
2023-04-28T05:58:10.095Z,0.20
2023-04-28T05:59:10.061Z,0.50
2023-04-28T06:00:10.064Z,0.60
2023-04-28T06:01:10.055Z,0.80
2023-04-28T06:02:10.069Z,1.10
2023-04-28T06:03:10.184Z,1.30
2023-04-28T06:04:10.268Z,0.00
2023-04-28T06:05:10.202Z,0.80
2023-04-28T06:06:10.417Z,0.40
2023-04-28T06:07:09.978Z,0.70
2023-04-28T06:08:09.984Z,0.10
2023-04-28T06:09:09.978Z,0.60
2023-04-28T06:10:09.943Z,1.30
2023-04-28T06:11:09.925Z,0.00
2023-04-28T06:12:10.006Z,0.20
2023-04-28T06:13:09.888Z,0.70
2023-04-28T06:14:09.920Z,0.20
2023-04-28T06:15:09.884Z,0.10
2023-04-28T06:16:09.899Z,0.20
2023-04-28T06:17:09.843Z,0.40
2023-04-28T06:18:09.975Z,0.80
2023-04-28T06:19:09.830Z,0.00
2023-04-28T06:20:09.889Z,0.40
2023-04-28T06:21:09.794Z,0.20
2023-04-28T06:22:09.820Z,0.10
2023-04-28T06:23:09.792Z,0.30
2023-04-28T06:24:09.786Z,0.50
2023-04-28T06:25:09.755Z,0.00
2023-04-28T06:26:09.774Z,0.00
2023-04-28T06:27:09.750Z,0.10
2023-04-28T06:28:09.780Z,1.30
2023-04-28T06:29:09.702Z,0.30
2023-04-28T06:30:09.744Z,0.00
2023-04-28T06:31:09.741Z,0.10
2023-04-28T06:32:09.730Z,0.00
2023-04-28T06:33:09.680Z,0.40
2023-04-28T06:34:09.730Z,0.90
2023-04-28T06:35:09.671Z,0.10
2023-04-28T06:36:09.674Z,0.30
2023-04-28T06:37:09.631Z,0.30
2023-04-28T06:38:09.675Z,0.30
2023-04-28T06:39:09.639Z,0.10
2023-04-28T06:40:09.629Z,1.10
2023-04-28T06:41:09.594Z,0.10
2023-04-28T06:42:09.634Z,0.00
2023-04-28T06:43:09.586Z,0.60
2023-04-28T06:44:09.685Z,0.70
2023-04-28T06:45:09.569Z,0.70
2023-04-28T06:46:11.146Z,0.80
2023-04-28T06:47:09.711Z,0.00
2023-04-28T06:48:09.654Z,2.20
2023-04-28T06:49:09.543Z,0.10
2023-04-28T06:50:09.574Z,0.10
2023-04-28T06:51:09.716Z,0.20
2023-04-28T06:52:09.527Z,0.00
2023-04-28T06:53:09.556Z,0.80
2023-04-28T06:54:09.533Z,0.70
2023-04-28T06:55:09.520Z,0.10
2023-04-28T06:56:11.427Z,0.20
2023-04-28T06:57:09.459Z,0.30
2023-04-28T06:58:10.775Z,0.30
2023-04-28T06:59:10.469Z,0.60
2023-04-28T07:00:09.460Z,0.70
2023-04-28T07:01:09.480Z,1.70
2023-04-28T07:02:09.487Z,1.30
2023-04-28T07:03:09.601Z,0.40
2023-04-28T07:04:09.643Z,0.80
2023-04-28T07:05:09.409Z,0.40
2023-04-28T07:06:09.528Z,0.50
2023-04-28T07:07:09.375Z,0.10
2023-04-28T07:08:09.405Z,0.00
2023-04-28T07:09:10.317Z,0.30
2023-04-28T07:10:09.322Z,0.90
2023-04-28T07:11:09.344Z,0.10
2023-04-28T07:12:09.291Z,0.40
2023-04-28T07:13:09.346Z,0.50
2023-04-28T07:14:09.374Z,0.40
2023-04-28T07:15:10.303Z,0.30
2023-04-28T07:16:09.277Z,1.40
2023-04-28T07:17:09.209Z,0.30
2023-04-28T07:18:09.262Z,0.30
2023-04-28T07:19:09.190Z,0.50
2023-04-28T07:20:09.186Z,0.20
2023-04-28T07:21:09.184Z,1.40
2023-04-28T07:22:09.208Z,0.40
2023-04-28T07:23:09.159Z,0.20
2023-04-28T07:24:09.168Z,0.70
2023-04-28T07:25:09.156Z,0.30
2023-04-28T07:26:09.198Z,0.10
2023-04-28T07:27:09.133Z,0.10
2023-04-28T07:28:09.124Z,0.60
2023-04-28T07:29:09.101Z,0.10
2023-04-28T07:30:25.010Z,0.20
2023-04-28T07:31:09.087Z,1.20
2023-04-28T07:32:09.234Z,0.60
2023-04-28T07:33:09.155Z,0.10
2023-04-28T07:34:09.074Z,0.10
2023-04-28T07:35:09.062Z,0.70
2023-04-28T07:36:17.093Z,0.20
2023-04-28T07:37:22.392Z,0.30
2023-04-28T07:38:09.038Z,1.00
2023-04-28T07:39:10.217Z,0.20
2023-04-28T07:40:10.019Z,0.10
2023-04-28T07:41:11.054Z,0.90
2023-04-28T07:42:09.769Z,0.10
2023-04-28T07:43:09.013Z,0.90
2023-04-28T07:44:18.382Z,0.10
2023-04-28T07:45:09.675Z,0.70
2023-04-28T07:46:09.028Z,0.90
2023-04-28T07:47:08.923Z,0.20
2023-04-28T07:48:09.009Z,0.10
2023-04-28T07:49:08.865Z,0.30
2023-04-28T07:50:08.897Z,0.00
2023-04-28T07:51:08.890Z,0.10
2023-04-28T07:52:08.890Z,0.10
2023-04-28T07:53:08.820Z,0.10
2023-04-28T07:54:08.836Z,0.10
2023-04-28T07:55:08.822Z,1.70
2023-04-28T07:56:08.836Z,0.20
2023-04-28T07:57:08.818Z,0.10
2023-04-28T07:58:08.796Z,0.30
2023-04-28T07:59:08.803Z,0.00
2023-04-28T08:00:09.507Z,0.70
2023-04-28T08:01:10.245Z,0.20
2023-04-28T08:02:08.823Z,0.10
2023-04-28T08:03:08.893Z,0.50
2023-04-28T08:04:09.002Z,0.20
2023-04-28T08:05:08.989Z,0.00
2023-04-28T08:06:08.918Z,0.20
2023-04-28T08:07:08.691Z,0.50
2023-04-28T08:08:08.700Z,0.30
2023-04-28T08:09:08.645Z,0.10
2023-04-28T08:10:08.614Z,0.30
2023-04-28T08:11:08.710Z,0.10
2023-04-28T08:12:08.599Z,0.20
2023-04-28T08:13:08.626Z,0.80
2023-04-28T08:14:08.595Z,0.30
2023-04-28T08:15:08.614Z,0.10
2023-04-28T08:16:08.584Z,0.10
2023-04-28T08:17:08.596Z,1.50
2023-04-28T08:18:08.661Z,0.40
2023-04-28T08:19:08.636Z,0.80
2023-04-28T08:20:08.494Z,0.10
2023-04-28T08:21:08.541Z,0.40
2023-04-28T08:22:08.502Z,0.10
2023-04-28T08:23:08.496Z,0.60
2023-04-28T08:24:08.467Z,0.40
2023-04-28T08:25:08.502Z,0.60
2023-04-28T08:26:08.438Z,0.10
2023-04-28T08:27:08.482Z,0.70
2023-04-28T08:28:08.452Z,0.10
2023-04-28T08:29:08.461Z,0.20
2023-04-28T08:30:08.414Z,4.00
2023-04-28T08:31:08.471Z,0.40
2023-04-28T08:32:08.396Z,0.70
2023-04-28T08:33:08.421Z,1.30
2023-04-28T08:34:08.350Z,0.10
2023-04-28T08:35:08.374Z,0.20
2023-04-28T08:36:08.347Z,0.10
2023-04-28T08:37:08.367Z,0.00
2023-04-28T08:38:08.291Z,0.10
2023-04-28T08:39:08.336Z,0.50
2023-04-28T08:40:08.297Z,0.60
2023-04-28T08:41:08.299Z,1.70
2023-04-28T08:42:08.313Z,0.10
2023-04-28T08:43:08.280Z,0.50
2023-04-28T08:44:08.253Z,0.10
2023-04-28T08:45:08.261Z,0.40
2023-04-28T08:46:08.404Z,0.70
2023-04-28T08:47:08.241Z,0.10
2023-04-28T08:48:08.249Z,1.60
2023-04-28T08:49:08.206Z,0.20
2023-04-28T08:50:08.175Z,0.10
2023-04-28T08:51:08.177Z,0.20
2023-04-28T08:52:08.229Z,1.00
2023-04-28T08:53:08.167Z,1.00
2023-04-28T08:55:08.200Z,0.10
2023-04-28T08:56:08.113Z,0.70
2023-04-28T08:57:08.157Z,0.10
2023-04-28T08:58:08.115Z,0.40
2023-04-28T08:59:08.086Z,0.30
2023-04-28T09:00:08.055Z,0.00
2023-04-28T09:01:08.100Z,1.30
2023-04-28T09:02:08.067Z,0.40
2023-04-28T09:03:08.264Z,5.80
2023-04-28T09:04:08.178Z,0.10
2023-04-28T09:05:08.341Z,0.00
2023-04-28T09:06:07.997Z,0.00
2023-04-28T09:07:08.032Z,0.00
2023-04-28T09:08:08.039Z,0.30
2023-04-28T09:09:08.036Z,0.80
2023-04-28T09:10:07.953Z,0.40
2023-04-28T09:11:07.996Z,0.40
2023-04-28T09:12:07.959Z,0.10
2023-04-28T09:13:07.972Z,0.10
2023-04-28T09:14:07.911Z,0.60
2023-04-28T09:15:07.918Z,0.50
2023-04-28T09:16:07.929Z,0.20
2023-04-28T09:17:07.909Z,0.20
2023-04-28T09:18:08.096Z,0.30
2023-04-28T09:19:07.883Z,0.10
2023-04-28T09:20:07.853Z,0.00
2023-04-28T09:21:07.864Z,0.20
2023-04-28T09:22:24.920Z,0.10
2023-04-28T09:23:07.858Z,1.40
2023-04-28T09:24:07.810Z,0.10
2023-04-28T09:25:07.828Z,0.60
2023-04-28T09:26:07.890Z,0.00
2023-04-28T09:27:07.794Z,0.10
2023-04-28T09:28:07.787Z,0.70
2023-04-28T09:29:07.815Z,0.30
2023-04-28T09:30:07.750Z,0.00
2023-04-28T09:31:07.761Z,0.30
2023-04-28T09:32:07.760Z,0.10
2023-04-28T09:33:08.782Z,0.60
2023-04-28T09:34:07.780Z,0.20
2023-04-28T09:35:07.766Z,0.20
2023-04-28T09:36:07.669Z,0.10
2023-04-28T09:37:07.717Z,0.90
2023-04-28T09:38:07.718Z,0.10
2023-04-28T09:39:07.706Z,0.30
2023-04-28T09:40:07.668Z,0.30
2023-04-28T09:41:15.201Z,0.00
2023-04-28T09:42:07.587Z,0.30
2023-04-28T09:43:20.981Z,0.20
2023-04-28T09:44:07.588Z,0.00
2023-04-28T09:45:07.610Z,0.20
2023-04-28T09:46:07.573Z,0.10
2023-04-28T09:47:07.562Z,0.10
2023-04-28T09:48:07.615Z,0.10
2023-04-28T09:49:07.536Z,0.20
2023-04-28T09:50:07.510Z,0.00
2023-04-28T09:51:07.525Z,0.40
2023-04-28T09:52:07.481Z,0.00
2023-04-28T09:53:07.529Z,0.10
2023-04-28T09:54:07.460Z,0.10
2023-04-28T09:55:07.478Z,0.20
2023-04-28T09:56:07.447Z,0.10
2023-04-28T09:57:07.767Z,0.30
2023-04-28T09:58:07.443Z,0.10
2023-04-28T09:59:07.428Z,0.30
2023-04-28T10:00:07.401Z,0.10
2023-04-28T10:01:07.490Z,1.70
2023-04-28T10:02:22.482Z,1.00
2023-04-28T10:03:07.485Z,1.90
2023-04-28T10:04:07.625Z,1.70
2023-04-28T10:05:07.615Z,1.40
2023-04-28T10:06:07.335Z,0.70
2023-04-28T10:07:07.338Z,0.60
2023-04-28T10:08:07.309Z,1.70
2023-04-28T10:09:07.350Z,0.30
2023-04-28T10:10:07.290Z,1.30
2023-04-28T10:11:07.304Z,0.80
2023-04-28T10:12:07.269Z,1.10
2023-04-28T10:13:07.300Z,1.10
2023-04-28T10:14:07.273Z,0.30
2023-04-28T10:15:07.254Z,6.40
2023-04-28T10:16:07.275Z,1.70
2023-04-28T10:17:07.238Z,0.70
2023-04-28T10:18:07.209Z,2.10
2023-04-28T10:19:07.246Z,2.10
2023-04-28T10:20:07.187Z,0.80
2023-04-28T10:21:07.201Z,0.50
2023-04-28T10:22:07.158Z,1.30
2023-04-28T10:23:07.170Z,1.20
2023-04-28T10:24:07.192Z,1.00
2023-04-28T10:25:07.167Z,0.90
2023-04-28T10:26:07.126Z,2.10
2023-04-28T10:27:07.130Z,1.00
2023-04-28T10:28:07.102Z,0.60
2023-04-28T10:29:07.132Z,0.70
2023-04-28T10:30:15.847Z,0.70
2023-04-28T10:31:07.136Z,1.40
2023-04-28T10:32:07.052Z,0.80
2023-04-28T10:33:07.129Z,0.70
2023-04-28T10:34:07.078Z,1.00
2023-04-28T10:35:07.042Z,1.20
2023-04-28T10:36:07.005Z,1.40
2023-04-28T10:37:07.026Z,0.80
2023-04-28T10:38:07.032Z,0.30
2023-04-28T10:39:07.055Z,0.70
2023-04-28T10:40:08.330Z,2.80
2023-04-28T10:41:06.989Z,0.60
2023-04-28T10:42:06.947Z,0.80
2023-04-28T10:43:06.958Z,0.50
2023-04-28T10:44:06.947Z,1.20
2023-04-28T10:45:06.955Z,1.80
2023-04-28T10:46:06.985Z,1.40
2023-04-28T10:47:06.998Z,0.70
2023-04-28T10:48:06.943Z,0.40
2023-04-28T10:49:06.918Z,0.60
2023-04-28T10:50:06.908Z,0.40
2023-04-28T10:51:06.885Z,1.10
2023-04-28T10:52:06.849Z,0.50
2023-04-28T10:53:06.868Z,0.20
2023-04-28T10:54:06.825Z,0.70
2023-04-28T10:55:19.288Z,0.50
2023-04-28T10:56:06.828Z,0.70
2023-04-28T10:57:06.819Z,1.00
2023-04-28T10:58:06.807Z,0.80
2023-04-28T10:59:06.819Z,0.60
2023-04-28T11:00:06.792Z,0.80
2023-04-28T11:01:06.847Z,0.30
2023-04-28T11:02:06.799Z,0.70
2023-04-28T11:03:06.928Z,0.40
2023-04-28T11:04:06.879Z,0.90
2023-04-28T11:05:06.848Z,0.60
2023-04-28T11:06:06.742Z,0.80
2023-04-28T11:07:06.726Z,0.30
2023-04-28T11:08:06.681Z,0.60
2023-04-28T11:09:06.706Z,0.70
2023-04-28T11:10:06.676Z,0.70
2023-04-28T11:11:06.717Z,0.80
2023-04-28T11:12:06.662Z,1.10
2023-04-28T11:13:06.655Z,0.70
2023-04-28T11:14:06.602Z,0.20
2023-04-28T11:15:06.709Z,0.70
2023-04-28T11:16:06.620Z,0.60
2023-04-28T11:17:06.647Z,0.60
2023-04-28T11:18:06.644Z,1.10
2023-04-28T11:19:06.572Z,1.00
2023-04-28T11:20:06.572Z,1.00
2023-04-28T11:21:06.548Z,0.90
2023-04-28T11:22:06.551Z,1.00
2023-04-28T11:23:06.540Z,1.60
2023-04-28T11:24:06.510Z,0.70
2023-04-28T11:25:06.524Z,1.10
2023-04-28T11:26:06.469Z,0.60
2023-04-28T11:27:06.534Z,0.40
2023-04-28T11:28:06.449Z,1.40
2023-04-28T11:29:06.463Z,0.60
2023-04-28T11:30:06.430Z,0.30
2023-04-28T11:31:06.462Z,0.40
2023-04-28T11:32:06.561Z,0.20
2023-04-28T11:33:06.490Z,0.10
2023-04-28T11:34:06.415Z,0.70
2023-04-28T11:35:06.426Z,0.70
2023-04-28T11:36:06.378Z,0.60
2023-04-28T11:37:06.374Z,0.50
2023-04-28T11:38:06.390Z,0.50
2023-04-28T11:39:06.401Z,0.80
2023-04-28T11:40:06.356Z,0.30
2023-04-28T11:41:06.336Z,0.80
2023-04-28T11:42:06.327Z,1.00
2023-04-28T11:43:06.345Z,0.30
2023-04-28T11:44:06.285Z,0.10
2023-04-28T11:45:06.334Z,0.60
2023-04-28T11:46:06.330Z,0.40
2023-04-28T11:47:06.579Z,0.50
2023-04-28T11:48:06.355Z,0.50
2023-04-28T11:49:06.272Z,0.50
2023-04-28T11:50:06.253Z,0.50
2023-04-28T11:51:06.231Z,0.40
2023-04-28T11:52:06.230Z,0.20
2023-04-28T11:53:06.215Z,0.20
2023-04-28T11:54:06.241Z,0.30
2023-04-28T11:55:06.209Z,0.70
2023-04-28T11:56:06.189Z,0.40
2023-04-28T11:57:06.236Z,0.30
2023-04-28T11:58:06.169Z,0.80
2023-04-28T11:59:06.190Z,0.50
2023-04-28T12:00:06.128Z,0.70
2023-04-28T12:01:06.149Z,0.40
2023-04-28T12:02:06.183Z,0.80
2023-04-28T12:03:06.243Z,0.20
2023-04-28T12:04:06.181Z,0.70
2023-04-28T12:05:06.190Z,0.80
2023-04-28T12:06:06.052Z,0.30
2023-04-28T12:07:06.142Z,0.00
2023-04-28T12:08:06.043Z,0.10
2023-04-28T12:09:06.067Z,0.20
2023-04-28T12:10:06.007Z,0.10
2023-04-28T12:11:06.048Z,0.40
2023-04-28T12:12:06.022Z,0.80
2023-04-28T12:13:05.989Z,0.90
2023-04-28T12:14:06.001Z,0.60
2023-04-28T12:15:05.979Z,0.10
2023-04-28T12:16:06.007Z,0.50
2023-04-28T12:17:06.012Z,1.40
2023-04-28T12:18:05.997Z,0.30
2023-04-28T12:19:05.913Z,0.10
2023-04-28T12:20:05.936Z,0.20
2023-04-28T12:21:05.884Z,0.10
2023-04-28T12:22:05.909Z,0.20
2023-04-28T12:23:05.885Z,0.20
2023-04-28T12:24:05.864Z,0.60
2023-04-28T12:25:05.885Z,0.40
2023-04-28T12:26:05.849Z,0.30
2023-04-28T12:27:05.811Z,0.40
2023-04-28T12:28:05.826Z,0.20
2023-04-28T12:29:05.798Z,0.40
2023-04-28T12:30:05.831Z,0.10
2023-04-28T12:31:05.795Z,0.20
2023-04-28T12:32:05.790Z,0.60
2023-04-28T12:33:05.891Z,0.30
2023-04-28T12:34:05.751Z,0.40
2023-04-28T12:35:05.758Z,0.20
2023-04-28T12:36:05.735Z,0.10
2023-04-28T12:37:05.777Z,0.30
2023-04-28T12:38:05.719Z,0.10
2023-04-28T12:39:05.682Z,0.60
2023-04-28T12:40:05.687Z,0.30
2023-04-28T12:41:05.685Z,0.30
2023-04-28T12:42:05.672Z,0.10
2023-04-28T12:43:05.647Z,0.40
2023-04-28T12:44:05.646Z,0.10
2023-04-28T12:45:05.605Z,0.30
2023-04-28T12:46:05.654Z,0.20
2023-04-28T12:47:05.596Z,0.30
2023-04-28T12:48:05.660Z,0.20
2023-04-28T12:49:05.563Z,0.50
2023-04-28T12:50:05.603Z,0.60
2023-04-28T12:51:05.566Z,0.50
2023-04-28T12:52:05.575Z,0.30
2023-04-28T12:53:05.526Z,0.40
2023-04-28T12:54:05.699Z,0.10
2023-04-28T12:55:05.507Z,0.10
2023-04-28T12:56:05.512Z,3.00
2023-04-28T12:57:05.503Z,0.60
2023-04-28T12:58:05.511Z,0.20
2023-04-28T12:59:05.468Z,0.20
2023-04-28T13:00:05.508Z,1.00
2023-04-28T13:01:05.440Z,0.70
2023-04-28T13:02:05.557Z,0.60
2023-04-28T13:03:05.522Z,0.40
2023-04-28T13:04:05.625Z,0.30
2023-04-28T13:05:05.562Z,0.40
2023-04-28T13:06:05.423Z,0.10
2023-04-28T13:07:05.417Z,0.20
2023-04-28T13:08:05.390Z,0.50
2023-04-28T13:09:05.339Z,0.40
2023-04-28T13:10:05.414Z,0.90
2023-04-28T13:11:12.814Z,1.00
2023-04-28T13:12:05.366Z,5.50
2023-04-28T13:13:05.326Z,1.20
2023-04-28T13:14:05.328Z,0.30
2023-04-28T13:15:05.297Z,0.30
2023-04-28T13:16:05.319Z,0.30